Time;durP1;ratioP1;P1;durP2;ratioP2;P2;SDS_P1;SDS_P2;PMS_P1;PMS_P2;Temp;Humidity;BMP_temperature;BMP_pressure;BME280_temperature;BME280_humidity;BME280_pressure;Samples;Min_cycle;Max_cycle;Signal;HPM_P1;HPM_P2
2021/09/27 00:00:47;;;;;;;22.27;11.90;;;;;;;;;;5011873;28;20951;-64
2021/09/27 00:03:13;;;;;;;22.80;12.10;;;;;;;;;;5013161;28;20458;-63
2021/09/27 00:05:39;;;;;;;18.17;10.43;;;;;;;;;;5026961;28;20832;-63
2021/09/27 00:08:05;;;;;;;19.73;11.30;;;;;;;;;;5031912;28;20510;-63
2021/09/27 00:10:52;;;;;;;20.33;13.70;;;;;;;;;;5019691;28;20808;-63
2021/09/27 00:13:19;;;;;;;23.90;11.93;;;;;;;;;;5013368;28;20547;-63
2021/09/27 00:15:46;;;;;;;19.73;12.40;;;;;;;;;;5027548;28;20430;-63
2021/09/27 00:18:13;;;;;;;19.87;12.13;;;;;;;;;;5033093;28;20406;-64
2021/09/27 00:20:41;;;;;;;18.17;11.60;;;;;;;;;;5031991;28;20468;-65
2021/09/27 00:23:07;;;;;;;20.60;11.57;;;;;;;;;;5028246;28;20455;-65
2021/09/27 00:25:34;;;;;;;21.63;13.30;;;;;;;;;;5024922;28;20433;-64
2021/09/27 00:28:00;;;;;;;23.47;12.60;;;;;;;;;;5033147;28;20464;-63
2021/09/27 00:30:26;;;;;;;19.00;12.10;;;;;;;;;;5020546;28;20523;-64
2021/09/27 00:32:52;;;;;;;20.50;11.80;;;;;;;;;;5013150;28;20423;-65
2021/09/27 00:35:23;;;;;;;20.83;12.83;;;;;;;;;;5023055;28;20442;-65
2021/09/27 00:37:49;;;;;;;21.70;12.27;;;;;;;;;;5032792;28;20476;-63
2021/09/27 00:40:18;;;;;;;22.03;13.00;;;;;;;;;;5031372;28;20939;-64
2021/09/27 00:42:45;;;;;;;19.10;12.00;;;;;;;;;;5032752;28;20463;-64
2021/09/27 00:45:12;;;;;;;19.03;11.50;;;;;;;;;;5031888;28;20435;-64
2021/09/27 00:47:38;;;;;;;21.40;12.37;;;;;;;;;;5030910;28;20403;-64
2021/09/27 00:50:06;;;;;;;18.47;12.60;;;;;;;;;;5023491;28;20932;-64
2021/09/27 00:52:32;;;;;;;18.93;12.13;;;;;;;;;;5012978;28;20407;-64
2021/09/27 00:54:58;;;;;;;19.17;10.93;;;;;;;;;;5019104;28;20422;-64
2021/09/27 00:57:25;;;;;;;17.63;10.53;;;;;;;;;;5022785;28;20799;-64
2021/09/27 00:59:53;;;;;;;18.10;11.63;;;;;;;;;;5017835;28;20429;-64
2021/09/27 01:02:19;;;;;;;16.87;10.63;;;;;;;;;;5032694;28;20455;-64
2021/09/27 01:04:45;;;;;;;18.53;11.57;;;;;;;;;;5027323;28;20438;-64
2021/09/27 01:07:11;;;;;;;16.17;10.60;;;;;;;;;;5011526;28;20423;-64
2021/09/27 01:09:46;;;;;;;20.93;10.43;;;;;;;;;;5016068;28;20515;-64
2021/09/27 01:12:31;;;;;;;24.53;12.90;;;;;;;;;;5026806;28;20443;-64
2021/09/27 01:15:15;;;;;;;16.00;11.40;;;;;;;;;;5019408;28;20512;-64
2021/09/27 01:17:47;;;;;;;18.23;10.77;;;;;;;;;;5036609;28;20402;-64
2021/09/27 01:20:16;;;;;;;19.50;11.20;;;;;;;;;;5034998;28;20458;-64
2021/09/27 01:23:00;;;;;;;20.53;11.90;;;;;;;;;;5036095;28;20510;-64
2021/09/27 01:25:45;;;;;;;20.97;13.33;;;;;;;;;;5035262;28;20492;-65
2021/09/27 01:28:26;;;;;;;19.80;10.97;;;;;;;;;;5036167;28;20465;-64
2021/09/27 01:31:05;;;;;;;19.17;12.07;;;;;;;;;;5034254;28;21042;-64
2021/09/27 01:33:38;;;;;;;19.20;11.23;;;;;;;;;;5036213;28;20395;-64
2021/09/27 01:36:14;;;;;;;15.33;10.50;;;;;;;;;;5035007;28;20473;-64
2021/09/27 01:38:52;;;;;;;16.50;10.90;;;;;;;;;;5035954;28;20394;-64
2021/09/27 01:41:24;;;;;;;16.23;10.90;;;;;;;;;;5023878;28;20458;-64
2021/09/27 01:43:59;;;;;;;17.57;11.37;;;;;;;;;;5019976;28;20561;-64
2021/09/27 01:46:30;;;;;;;18.53;11.10;;;;;;;;;;5034821;28;20430;-64
2021/09/27 01:49:09;;;;;;;18.40;12.53;;;;;;;;;;5035624;28;20379;-64
2021/09/27 01:51:41;;;;;;;21.03;11.60;;;;;;;;;;5022388;28;20594;-64
2021/09/27 01:54:16;;;;;;;20.23;12.30;;;;;;;;;;5016031;28;20392;-64
2021/09/27 01:57:01;;;;;;;17.30;10.93;;;;;;;;;;5029495;28;20789;-64
2021/09/27 01:59:33;;;;;;;18.90;12.37;;;;;;;;;;5035911;28;20398;-64
2021/09/27 02:02:03;;;;;;;20.93;11.97;;;;;;;;;;5030699;28;20558;-64
2021/09/27 02:04:37;;;;;;;21.43;12.13;;;;;;;;;;5015632;28;20947;-64
2021/09/27 02:07:04;;;;;;;18.47;11.83;;;;;;;;;;5031374;28;20437;-64
2021/09/27 02:09:51;;;;;;;19.27;11.77;;;;;;;;;;5035299;28;20413;-64
2021/09/27 02:12:23;;;;;;;20.90;12.67;;;;;;;;;;5028990;28;20530;-64
2021/09/27 02:14:52;;;;;;;21.40;11.97;;;;;;;;;;5035513;28;20452;-64
2021/09/27 02:17:24;;;;;;;19.60;12.47;;;;;;;;;;5023532;28;20927;-64
2021/09/27 02:19:56;;;;;;;22.20;12.80;;;;;;;;;;5035187;28;20823;-64
2021/09/27 02:22:25;;;;;;;19.70;13.23;;;;;;;;;;5034045;28;20458;-64
2021/09/27 02:25:03;;;;;;;21.50;12.37;;;;;;;;;;5035220;28;20435;-64
2021/09/27 02:27:29;;;;;;;16.40;11.50;;;;;;;;;;5033982;28;20427;-64
2021/09/27 02:29:55;;;;;;;20.87;13.13;;;;;;;;;;5034930;28;20411;-64
2021/09/27 02:32:43;;;;;;;22.20;12.10;;;;;;;;;;5017185;28;20799;-64
2021/09/27 02:35:12;;;;;;;17.77;11.63;;;;;;;;;;5015068;28;20878;-64
2021/09/27 02:37:47;;;;;;;21.97;13.23;;;;;;;;;;5035177;28;20415;-64
2021/09/27 02:40:27;;;;;;;20.67;13.10;;;;;;;;;;5025894;28;20471;-65
2021/09/27 02:42:55;;;;;;;19.77;11.70;;;;;;;;;;5014883;28;20444;-65
2021/09/27 02:45:22;;;;;;;20.90;13.13;;;;;;;;;;5025576;28;20497;-64
2021/09/27 02:47:51;;;;;;;19.10;11.97;;;;;;;;;;5015062;28;20408;-64
2021/09/27 02:50:21;;;;;;;17.20;10.53;;;;;;;;;;5014856;28;20447;-65
2021/09/27 02:52:47;;;;;;;18.10;11.90;;;;;;;;;;5031992;28;20514;-64
2021/09/27 02:55:15;;;;;;;18.40;12.20;;;;;;;;;;5034868;28;20775;-64
2021/09/27 02:57:41;;;;;;;17.50;11.33;;;;;;;;;;5015395;28;20510;-64
2021/09/27 03:00:10;;;;;;;17.50;11.07;;;;;;;;;;5014620;28;20447;-64
2021/09/27 03:02:36;;;;;;;16.93;11.03;;;;;;;;;;5033078;28;20830;-64
2021/09/27 03:05:10;;;;;;;16.10;11.37;;;;;;;;;;5034454;28;20929;-64
2021/09/27 03:07:44;;;;;;;13.83;9.80;;;;;;;;;;5033437;28;20423;-64
2021/09/27 03:10:13;;;;;;;19.50;11.67;;;;;;;;;;5033148;28;20439;-64
2021/09/27 03:12:58;;;;;;;19.97;10.40;;;;;;;;;;5033714;28;20461;-64
2021/09/27 03:15:36;;;;;;;16.57;9.63;;;;;;;;;;5030899;28;21017;-64
2021/09/27 03:18:11;;;;;;;17.00;10.93;;;;;;;;;;5015074;28;20416;-64
2021/09/27 03:21:02;;;;;;;14.63;10.07;;;;;;;;;;5014956;28;20419;-64
2021/09/27 03:23:34;;;;;;;19.97;10.93;;;;;;;;;;5028703;28;20458;-66
2021/09/27 03:26:18;;;;;;;17.97;10.30;;;;;;;;;;5025158;28;20480;-64
2021/09/27 03:29:03;;;;;;;16.83;10.50;;;;;;;;;;5034112;28;20903;-64
2021/09/27 03:31:33;;;;;;;19.47;10.73;;;;;;;;;;5032782;28;20442;-64
2021/09/27 03:34:04;;;;;;;15.50;9.70;;;;;;;;;;5033854;28;20442;-64
2021/09/27 03:36:30;;;;;;;23.20;11.90;;;;;;;;;;5032933;28;20419;-64
2021/09/27 03:38:56;;;;;;;18.00;11.03;;;;;;;;;;5033690;28;20417;-64
2021/09/27 03:41:25;;;;;;;17.93;10.87;;;;;;;;;;5026643;28;20842;-64
2021/09/27 03:43:51;;;;;;;15.33;9.83;;;;;;;;;;5014326;28;20513;-64
2021/09/27 03:46:17;;;;;;;17.70;10.53;;;;;;;;;;5014398;28;20837;-64
2021/09/27 03:48:46;;;;;;;21.73;11.90;;;;;;;;;;5013900;28;20457;-64
2021/09/27 03:51:17;;;;;;;17.40;11.43;;;;;;;;;;5017719;28;20447;-64
2021/09/27 03:53:52;;;;;;;17.57;10.30;;;;;;;;;;5034050;28;20419;-64
2021/09/27 03:56:27;;;;;;;15.97;10.43;;;;;;;;;;5028049;28;20906;-64
2021/09/27 03:58:59;;;;;;;16.43;10.80;;;;;;;;;;5022483;28;20426;-64
2021/09/27 04:01:55;;;;;;;22.37;11.93;;;;;;;;;;5027246;28;20455;-64
2021/09/27 04:04:30;;;;;;;15.30;9.77;;;;;;;;;;4961207;28;20438;-64
2021/09/27 04:07:19;;;;;;;19.63;12.00;;;;;;;;;;5023201;28;20466;-64
2021/09/27 04:09:49;;;;;;;16.17;10.23;;;;;;;;;;5023618;28;20415;-63
2021/09/27 04:12:15;;;;;;;18.77;10.57;;;;;;;;;;5032496;28;20419;-64
2021/09/27 04:14:59;;;;;;;20.10;11.67;;;;;;;;;;5033701;28;20405;-64
2021/09/27 04:17:31;;;;;;;17.20;9.83;;;;;;;;;;5031315;28;20480;-64
2021/09/27 04:20:07;;;;;;;17.93;10.53;;;;;;;;;;5033554;28;20804;-64
2021/09/27 04:22:41;;;;;;;18.80;9.40;;;;;;;;;;5032265;28;20458;-63
2021/09/27 04:25:07;;;;;;;15.70;9.80;;;;;;;;;;5033495;28;20403;-63
2021/09/27 04:27:59;;;;;;;16.80;10.90;;;;;;;;;;5032403;28;20476;-63
2021/09/27 04:30:25;;;;;;;19.77;11.00;;;;;;;;;;5031913;28;20482;-63
2021/09/27 04:32:54;;;;;;;13.37;9.03;;;;;;;;;;5031513;28;20500;-63
2021/09/27 04:35:23;;;;;;;19.57;11.07;;;;;;;;;;5033074;28;20903;-63
2021/09/27 04:37:50;;;;;;;15.70;10.23;;;;;;;;;;5017577;28;20430;-62
2021/09/27 04:40:18;;;;;;;20.53;11.80;;;;;;;;;;5012006;28;21026;-63
2021/09/27 04:42:56;;;;;;;17.60;10.67;;;;;;;;;;5026992;28;20955;-63
2021/09/27 04:45:39;;;;;;;19.30;10.90;;;;;;;;;;5033185;28;20415;-63
2021/09/27 04:48:21;;;;;;;19.00;11.10;;;;;;;;;;5015014;28;20423;-63
2021/09/27 04:50:50;;;;;;;16.40;9.77;;;;;;;;;;5015081;28;20454;-63
2021/09/27 04:53:35;;;;;;;16.83;10.63;;;;;;;;;;5033394;28;20489;-63
2021/09/27 04:56:20;;;;;;;18.97;11.07;;;;;;;;;;5037146;28;20398;-63
2021/09/27 04:58:46;;;;;;;20.07;11.27;;;;;;;;;;5017073;28;20414;-63
2021/09/27 05:01:12;;;;;;;20.40;10.70;;;;;;;;;;5021515;28;20446;-64
2021/09/27 05:03:56;;;;;;;17.97;11.17;;;;;;;;;;5017682;28;20447;-63
2021/09/27 05:06:49;;;;;;;17.03;9.73;;;;;;;;;;5031185;28;20426;-62
2021/09/27 05:09:23;;;;;;;17.73;10.47;;;;;;;;;;5036898;28;20386;-63
2021/09/27 05:11:49;;;;;;;18.80;10.10;;;;;;;;;;5035741;28;20433;-63
2021/09/27 05:14:15;;;;;;;17.53;10.73;;;;;;;;;;5036389;28;20974;-63
2021/09/27 05:17:01;;;;;;;20.37;11.10;;;;;;;;;;5034944;28;20554;-63
2021/09/27 05:19:37;;;;;;;18.97;11.43;;;;;;;;;;5016434;28;20786;-63
2021/09/27 05:22:06;;;;;;;21.10;11.10;;;;;;;;;;5021465;28;20441;-63
2021/09/27 05:24:38;;;;;;;19.53;11.07;;;;;;;;;;5036364;28;20399;-63
2021/09/27 05:27:13;;;;;;;21.57;11.20;;;;;;;;;;5035515;28;20427;-63
2021/09/27 05:30:02;;;;;;;22.97;10.87;;;;;;;;;;5036306;28;20959;-63
2021/09/27 05:32:47;;;;;;;19.70;11.93;;;;;;;;;;5034819;28;20426;-63
2021/09/27 05:35:27;;;;;;;21.60;11.07;;;;;;;;;;5036092;28;20424;-63
2021/09/27 05:38:00;;;;;;;19.17;9.93;;;;;;;;;;5033910;28;20422;-63
2021/09/27 05:40:45;;;;;;;18.63;10.80;;;;;;;;;;5056070;22;20414;-67
2021/09/27 05:43:20;;;;;;;24.20;12.77;;;;;;;;;;5015001;28;20478;-67
2021/09/27 05:45:46;;;;;;;24.87;12.80;;;;;;;;;;5016415;28;20411;-67
2021/09/27 05:48:21;;;;;;;20.77;12.90;;;;;;;;;;5015412;28;20427;-67
2021/09/27 05:50:51;;;;;;;19.07;10.83;;;;;;;;;;5016334;28;20418;-68
2021/09/27 05:53:39;;;;;;;27.03;12.70;;;;;;;;;;5015037;28;20435;-68
2021/09/27 05:56:28;;;;;;;18.13;11.30;;;;;;;;;;5016305;28;20500;-68
2021/09/27 05:59:02;;;;;;;20.03;11.47;;;;;;;;;;5009239;28;20966;-68
2021/09/27 06:01:37;;;;;;;16.50;10.27;;;;;;;;;;5015309;28;20432;-68
2021/09/27 06:04:21;;;;;;;20.60;10.80;;;;;;;;;;5015753;28;20461;-68
2021/09/27 06:06:53;;;;;;;18.10;10.23;;;;;;;;;;5012384;28;20757;-68
2021/09/27 06:09:38;;;;;;;18.97;11.30;;;;;;;;;;5015779;28;20384;-68
2021/09/27 06:12:22;;;;;;;19.23;11.10;;;;;;;;;;5011062;28;20439;-68
2021/09/27 06:14:50;;;;;;;16.70;9.67;;;;;;;;;;4996042;28;20989;-68
2021/09/27 06:17:19;;;;;;;13.83;8.80;;;;;;;;;;5001005;28;20428;-68
2021/09/27 06:19:51;;;;;;;16.33;10.80;;;;;;;;;;5014735;28;20798;-68
2021/09/27 06:22:17;;;;;;;14.27;8.70;;;;;;;;;;5014409;28;20439;-68
2021/09/27 06:24:43;;;;;;;17.10;9.40;;;;;;;;;;5015546;28;20828;-68
2021/09/27 06:27:12;;;;;;;18.23;10.70;;;;;;;;;;5013339;28;20439;-68
2021/09/27 06:29:44;;;;;;;14.67;9.40;;;;;;;;;;5015333;28;20487;-68
2021/09/27 06:32:23;;;;;;;15.10;9.00;;;;;;;;;;5015476;28;20432;-68
2021/09/27 06:34:52;;;;;;;13.43;8.70;;;;;;;;;;4995724;28;20420;-68
2021/09/27 06:37:19;;;;;;;13.23;7.80;;;;;;;;;;4995308;28;20454;-68
2021/09/27 06:39:45;;;;;;;12.47;8.27;;;;;;;;;;5013757;28;20415;-68
2021/09/27 06:42:11;;;;;;;14.43;8.90;;;;;;;;;;5014953;28;20563;-68
2021/09/27 06:44:38;;;;;;;15.00;9.73;;;;;;;;;;5014596;28;20512;-68
2021/09/27 06:47:04;;;;;;;13.00;8.63;;;;;;;;;;5014315;28;20438;-68
2021/09/27 06:49:30;;;;;;;14.70;9.43;;;;;;;;;;4997399;28;20416;-68
2021/09/27 06:51:56;;;;;;;15.27;10.13;;;;;;;;;;5006078;28;20964;-68
2021/09/27 06:54:22;;;;;;;15.60;8.63;;;;;;;;;;5013994;28;20428;-68
2021/09/27 06:56:48;;;;;;;12.83;8.77;;;;;;;;;;5013933;28;20404;-68
2021/09/27 06:59:16;;;;;;;12.53;7.83;;;;;;;;;;5009872;28;20435;-68
2021/09/27 07:01:42;;;;;;;11.07;8.80;;;;;;;;;;5000782;28;20457;-68
2021/09/27 07:04:08;;;;;;;19.23;8.30;;;;;;;;;;5008248;28;20469;-68
2021/09/27 07:06:34;;;;;;;17.30;9.10;;;;;;;;;;5011514;28;20423;-68
2021/09/27 07:09:01;;;;;;;10.70;7.87;;;;;;;;;;5015588;28;20430;-68
2021/09/27 07:11:27;;;;;;;9.83;6.50;;;;;;;;;;5011610;28;20582;-68
2021/09/27 07:13:53;;;;;;;10.13;6.70;;;;;;;;;;5008079;28;20466;-68
2021/09/27 07:16:19;;;;;;;9.37;7.27;;;;;;;;;;5010155;28;20431;-68
2021/09/27 07:18:45;;;;;;;9.07;6.50;;;;;;;;;;5008332;28;20432;-68
2021/09/27 07:21:11;;;;;;;10.00;7.10;;;;;;;;;;5009325;28;20456;-68
2021/09/27 07:23:39;;;;;;;7.73;6.07;;;;;;;;;;5010790;28;20458;-68
2021/09/27 07:26:09;;;;;;;7.63;6.47;;;;;;;;;;5011694;28;20473;-68
2021/09/27 07:28:35;;;;;;;9.80;7.00;;;;;;;;;;5010800;28;20424;-68
2021/09/27 07:31:02;;;;;;;10.70;6.93;;;;;;;;;;5010157;28;20489;-68
2021/09/27 07:33:28;;;;;;;8.43;6.50;;;;;;;;;;5009927;28;20458;-68
2021/09/27 07:35:55;;;;;;;11.10;6.57;;;;;;;;;;5010793;28;20431;-68
2021/09/27 07:38:21;;;;;;;8.30;6.87;;;;;;;;;;5009655;28;20463;-68
2021/09/27 07:40:47;;;;;;;8.57;6.73;;;;;;;;;;5008774;28;20462;-68
2021/09/27 07:43:14;;;;;;;10.53;6.83;;;;;;;;;;5011969;28;20455;-68
2021/09/27 07:45:40;;;;;;;7.20;5.23;;;;;;;;;;5012202;28;20431;-69
2021/09/27 07:48:09;;;;;;;8.63;6.53;;;;;;;;;;5012367;28;20786;-68
2021/09/27 07:50:35;;;;;;;10.30;7.20;;;;;;;;;;5011446;28;20494;-68
2021/09/27 07:53:02;;;;;;;9.23;6.43;;;;;;;;;;5010593;28;20443;-68
2021/09/27 07:55:28;;;;;;;8.30;5.30;;;;;;;;;;5009844;28;20450;-68
2021/09/27 07:57:54;;;;;;;6.30;4.70;;;;;;;;;;5009656;28;20517;-68
2021/09/27 08:00:21;;;;;;;10.07;5.80;;;;;;;;;;5011612;28;20841;-68
2021/09/27 08:02:47;;;;;;;8.43;6.23;;;;;;;;;;5009116;28;20451;-68
2021/09/27 08:05:15;;;;;;;7.57;5.77;;;;;;;;;;5004064;28;20428;-68
2021/09/27 08:07:41;;;;;;;8.90;6.20;;;;;;;;;;5011904;28;20427;-68
2021/09/27 08:10:08;;;;;;;7.07;5.80;;;;;;;;;;5011805;28;20517;-68
2021/09/27 08:12:37;;;;;;;9.10;6.50;;;;;;;;;;5011452;28;20420;-68
2021/09/27 08:15:05;;;;;;;6.30;5.40;;;;;;;;;;5010123;28;20887;-68
2021/09/27 08:17:31;;;;;;;9.87;6.20;;;;;;;;;;5011475;28;20423;-68
2021/09/27 08:20:00;;;;;;;8.60;6.30;;;;;;;;;;5012281;28;20436;-68
2021/09/27 08:22:26;;;;;;;10.13;7.00;;;;;;;;;;5012622;28;20471;-67
2021/09/27 08:24:52;;;;;;;8.83;6.43;;;;;;;;;;5009381;28;20514;-66
2021/09/27 08:27:18;;;;;;;9.27;6.93;;;;;;;;;;5010316;28;20459;-67
2021/09/27 08:29:45;;;;;;;9.53;7.13;;;;;;;;;;5010806;28;20423;-68
2021/09/27 08:32:11;;;;;;;8.67;7.07;;;;;;;;;;5009385;28;20549;-68
2021/09/27 08:34:37;;;;;;;10.70;6.77;;;;;;;;;;5010723;28;20424;-68
2021/09/27 08:37:03;;;;;;;11.73;8.37;;;;;;;;;;5009755;28;21014;-68
2021/09/27 08:39:29;;;;;;;9.97;6.27;;;;;;;;;;5009022;28;20427;-68
2021/09/27 08:42:10;;;;;;;9.97;6.70;;;;;;;;;;5011686;28;20961;-67
2021/09/27 08:44:49;;;;;;;8.40;6.37;;;;;;;;;;5007555;28;20793;-68
2021/09/27 08:47:24;;;;;;;9.90;7.80;;;;;;;;;;5007232;28;20442;-68
2021/09/27 08:49:50;;;;;;;10.80;6.67;;;;;;;;;;5008868;28;20423;-68
2021/09/27 08:52:17;;;;;;;16.40;7.07;;;;;;;;;;5007875;28;20683;-67
2021/09/27 08:54:44;;;;;;;9.20;7.10;;;;;;;;;;5007990;28;20459;-68
2021/09/27 08:57:19;;;;;;;10.80;6.97;;;;;;;;;;5011070;28;20497;-71
2021/09/27 08:59:48;;;;;;;8.57;6.53;;;;;;;;;;5007539;28;20562;-68
2021/09/27 09:02:33;;;;;;;9.17;6.17;;;;;;;;;;5010708;28;21073;-68
2021/09/27 09:05:17;;;;;;;9.33;6.30;;;;;;;;;;5009561;28;20458;-68
2021/09/27 09:07:56;;;;;;;9.20;7.20;;;;;;;;;;5007794;28;20813;-68
2021/09/27 09:10:40;;;;;;;11.10;7.30;;;;;;;;;;5007543;28;20436;-68
2021/09/27 09:13:08;;;;;;;11.53;7.60;;;;;;;;;;5006934;28;20435;-68
2021/09/27 09:15:36;;;;;;;9.13;6.70;;;;;;;;;;5008349;28;20436;-68
2021/09/27 09:18:07;;;;;;;8.03;6.60;;;;;;;;;;5007798;28;20424;-68
2021/09/27 09:20:33;;;;;;;9.07;6.70;;;;;;;;;;5008636;28;20455;-68
2021/09/27 09:22:59;;;;;;;9.43;5.80;;;;;;;;;;5011012;28;20458;-68
2021/09/27 09:25:27;;;;;;;7.27;5.47;;;;;;;;;;5009846;28;20428;-68
2021/09/27 09:27:53;;;;;;;8.40;6.20;;;;;;;;;;5010781;28;20424;-68
2021/09/27 09:30:22;;;;;;;7.90;6.00;;;;;;;;;;5024260;28;20484;-68
2021/09/27 09:32:51;;;;;;;9.03;5.90;;;;;;;;;;5010199;28;20419;-68
2021/09/27 09:35:21;;;;;;;12.63;6.43;;;;;;;;;;5005780;28;20518;-68
2021/09/27 09:38:04;;;;;;;6.50;5.53;;;;;;;;;;5007583;28;20423;-66
2021/09/27 09:40:36;;;;;;;7.03;6.33;;;;;;;;;;5007068;28;20546;-67
2021/09/27 09:43:13;;;;;;;7.73;5.97;;;;;;;;;;5012152;28;20496;-67
2021/09/27 09:45:41;;;;;;;6.90;6.20;;;;;;;;;;5011891;28;20931;-67
2021/09/27 09:48:13;;;;;;;7.87;5.30;;;;;;;;;;5012736;28;20850;-67
2021/09/27 09:50:41;;;;;;;7.50;6.53;;;;;;;;;;5011656;28;20447;-67
2021/09/27 09:53:16;;;;;;;7.90;6.33;;;;;;;;;;5009617;28;20419;-67
2021/09/27 09:55:52;;;;;;;10.90;6.77;;;;;;;;;;5012609;28;20733;-67
2021/09/27 09:58:34;;;;;;;10.83;6.10;;;;;;;;;;5008903;28;20433;-67
2021/09/27 10:01:03;;;;;;;11.87;7.33;;;;;;;;;;5010248;28;20494;-69
2021/09/27 10:03:34;;;;;;;7.87;6.20;;;;;;;;;;5012001;28;20550;-68
2021/09/27 10:06:03;;;;;;;8.67;6.60;;;;;;;;;;5010829;28;20982;-68
2021/09/27 10:08:29;;;;;;;9.40;7.13;;;;;;;;;;5009657;28;20504;-68
2021/09/27 10:10:58;;;;;;;8.20;6.50;;;;;;;;;;5013888;28;20443;-68
2021/09/27 10:13:43;;;;;;;8.60;6.80;;;;;;;;;;5012146;28;20420;-68
2021/09/27 10:16:17;;;;;;;10.07;6.93;;;;;;;;;;5011851;28;20442;-68
2021/09/27 10:18:46;;;;;;;8.67;7.77;;;;;;;;;;5009393;28;20522;-68
2021/09/27 10:21:31;;;;;;;8.13;6.93;;;;;;;;;;5011765;28;20439;-68
2021/09/27 10:23:59;;;;;;;8.47;6.00;;;;;;;;;;5010135;28;20979;-68
2021/09/27 10:26:39;;;;;;;7.40;6.10;;;;;;;;;;5012302;28;20427;-68
2021/09/27 10:29:08;;;;;;;8.80;6.37;;;;;;;;;;5012420;28;20825;-68
2021/09/27 10:31:35;;;;;;;10.93;6.37;;;;;;;;;;5012208;28;20440;-68
2021/09/27 10:34:04;;;;;;;7.93;6.40;;;;;;;;;;5012792;28;20951;-68
2021/09/27 10:36:39;;;;;;;6.93;6.13;;;;;;;;;;5012198;28;20481;-68
2021/09/27 10:39:08;;;;;;;8.33;6.57;;;;;;;;;;5009575;28;20814;-68
2021/09/27 10:41:35;;;;;;;9.43;6.57;;;;;;;;;;5012443;28;20451;-68
2021/09/27 10:44:03;;;;;;;9.13;6.40;;;;;;;;;;5011321;28;20467;-68
2021/09/27 10:46:34;;;;;;;7.70;6.57;;;;;;;;;;5011628;28;20940;-68
2021/09/27 10:49:01;;;;;;;9.50;6.80;;;;;;;;;;5010039;28;20915;-68
2021/09/27 10:51:35;;;;;;;8.67;5.80;;;;;;;;;;5012609;28;20788;-68
2021/09/27 10:54:04;;;;;;;8.50;6.63;;;;;;;;;;5014073;28;20527;-68
2021/09/27 10:56:49;;;;;;;9.53;7.20;;;;;;;;;;5012366;28;20431;-69
2021/09/27 10:59:27;;;;;;;8.87;6.60;;;;;;;;;;5011350;28;20442;-68
2021/09/27 11:01:56;;;;;;;8.47;6.77;;;;;;;;;;5009158;28;20455;-68
2021/09/27 11:04:24;;;;;;;7.50;6.07;;;;;;;;;;5006122;28;20478;-68
2021/09/27 11:06:58;;;;;;;10.90;7.13;;;;;;;;;;5012418;28;20424;-67
2021/09/27 11:09:29;;;;;;;6.87;6.13;;;;;;;;;;5006511;28;20419;-68
2021/09/27 11:12:15;;;;;;;9.77;6.90;;;;;;;;;;5006825;28;20968;-68
2021/09/27 11:14:52;;;;;;;9.37;7.43;;;;;;;;;;5011929;28;20853;-68
2021/09/27 11:17:25;;;;;;;6.70;5.67;;;;;;;;;;5012899;28;20462;-68
2021/09/27 11:20:20;;;;;;;8.27;6.53;;;;;;;;;;5007309;28;20478;-68
2021/09/27 11:22:55;;;;;;;8.77;5.90;;;;;;;;;;4956316;28;20885;-68
2021/09/27 11:25:21;;;;;;;7.20;5.80;;;;;;;;;;5008819;28;20814;-68
2021/09/27 11:28:05;;;;;;;8.03;5.70;;;;;;;;;;5011877;28;20443;-68
2021/09/27 11:30:41;;;;;;;7.93;6.97;;;;;;;;;;5011287;28;20533;-68
2021/09/27 11:33:31;;;;;;;6.40;5.60;;;;;;;;;;5011472;28;20998;-68
2021/09/27 11:35:59;;;;;;;7.57;5.53;;;;;;;;;;4997170;28;20922;-68
2021/09/27 11:38:46;;;;;;;8.40;5.70;;;;;;;;;;5011596;28;20423;-68
2021/09/27 11:41:12;;;;;;;6.13;5.53;;;;;;;;;;5011487;28;20463;-68
2021/09/27 11:43:41;;;;;;;7.13;5.77;;;;;;;;;;5012661;28;20470;-68
2021/09/27 11:46:08;;;;;;;6.93;5.77;;;;;;;;;;5011078;28;20792;-68
2021/09/27 11:48:46;;;;;;;7.80;5.50;;;;;;;;;;5010627;28;20447;-68
2021/09/27 11:51:37;;;;;;;7.73;6.00;;;;;;;;;;5011838;28;20442;-68
2021/09/27 11:54:06;;;;;;;7.50;5.53;;;;;;;;;;5009978;28;20420;-68
2021/09/27 11:56:34;;;;;;;6.13;5.53;;;;;;;;;;5010225;28;20419;-68
2021/09/27 11:59:00;;;;;;;12.97;6.20;;;;;;;;;;4998159;28;20432;-68
2021/09/27 12:01:56;;;;;;;5.83;4.47;;;;;;;;;;5011722;28;20431;-68
2021/09/27 12:04:22;;;;;;;8.03;5.97;;;;;;;;;;4942360;28;20927;-68
2021/09/27 12:06:50;;;;;;;7.60;6.23;;;;;;;;;;5010360;28;20408;-68
2021/09/27 12:09:36;;;;;;;7.40;5.80;;;;;;;;;;5010846;28;20514;-68
2021/09/27 12:12:06;;;;;;;6.30;4.83;;;;;;;;;;5008244;28;20476;-68
2021/09/27 12:14:38;;;;;;;7.33;6.57;;;;;;;;;;5011636;28;20455;-68
2021/09/27 12:17:06;;;;;;;7.47;5.83;;;;;;;;;;5007817;28;20549;-68
2021/09/27 12:19:34;;;;;;;10.33;9.20;;;;;;;;;;5009893;28;20567;-68
2021/09/27 12:22:07;;;;;;;8.77;7.53;;;;;;;;;;5010599;28;20447;-68
2021/09/27 12:24:35;;;;;;;8.60;6.00;;;;;;;;;;5007892;28;20458;-68
2021/09/27 12:27:04;;;;;;;9.40;6.37;;;;;;;;;;5010537;28;20424;-68
2021/09/27 12:29:31;;;;;;;5.87;4.93;;;;;;;;;;5010570;28;20485;-68
2021/09/27 12:32:01;;;;;;;8.00;5.33;;;;;;;;;;5006087;28;20443;-67
2021/09/27 12:34:27;;;;;;;8.20;5.93;;;;;;;;;;5006633;28;20440;-68
2021/09/27 12:36:53;;;;;;;8.53;6.20;;;;;;;;;;5005411;28;20808;-68
2021/09/27 12:39:21;;;;;;;7.43;5.90;;;;;;;;;;5009238;28;20447;-67
2021/09/27 12:41:47;;;;;;;9.57;6.07;;;;;;;;;;5011417;28;20459;-68
2021/09/27 12:44:16;;;;;;;7.30;6.37;;;;;;;;;;5009185;28;20541;-68
2021/09/27 12:46:44;;;;;;;8.87;6.03;;;;;;;;;;5010722;28;20416;-67
2021/09/27 12:49:11;;;;;;;7.77;6.30;;;;;;;;;;5008614;28;20509;-68
2021/09/27 12:51:41;;;;;;;5.83;4.83;;;;;;;;;;5010814;28;20455;-68
2021/09/27 12:54:07;;;;;;;5.83;4.83;;;;;;;;;;5011507;28;20411;-68
2021/09/27 12:56:34;;;;;;;7.83;5.90;;;;;;;;;;5010641;28;20502;-68
2021/09/27 12:59:02;;;;;;;6.53;5.57;;;;;;;;;;5007714;28;20513;-68
2021/09/27 13:01:29;;;;;;;7.50;6.37;;;;;;;;;;5006579;28;20509;-68
2021/09/27 13:04:04;;;;;;;7.43;5.97;;;;;;;;;;5007838;28;20463;-68
2021/09/27 13:06:33;;;;;;;8.80;5.50;;;;;;;;;;5011338;28;20419;-68
2021/09/27 13:09:09;;;;;;;7.60;5.73;;;;;;;;;;5005622;28;20459;-68
2021/09/27 13:11:39;;;;;;;6.60;5.40;;;;;;;;;;5015700;28;20521;-68
2021/09/27 13:14:09;;;;;;;6.40;5.17;;;;;;;;;;5023439;28;20427;-68
2021/09/27 13:16:38;;;;;;;9.33;5.93;;;;;;;;;;5023099;28;20434;-68
2021/09/27 13:19:06;;;;;;;6.03;5.40;;;;;;;;;;5028258;28;20424;-68
2021/09/27 13:21:43;;;;;;;6.30;5.43;;;;;;;;;;5026239;28;20442;-68
2021/09/27 13:24:12;;;;;;;7.13;5.60;;;;;;;;;;5014539;28;20577;-67
2021/09/27 13:26:41;;;;;;;6.00;4.47;;;;;;;;;;5012313;28;20467;-68
2021/09/27 13:29:22;;;;;;;7.10;5.50;;;;;;;;;;5012009;28;20497;-68
2021/09/27 13:31:53;;;;;;;7.30;5.20;;;;;;;;;;5013849;28;20514;-68
2021/09/27 13:34:40;;;;;;;6.13;4.93;;;;;;;;;;5014032;28;20419;-68
2021/09/27 13:37:37;;;;;;;6.10;5.03;;;;;;;;;;5004181;28;20422;-67
2021/09/27 13:40:18;;;;;;;7.27;5.57;;;;;;;;;;5007124;28;20473;-67
2021/09/27 13:42:49;;;;;;;7.70;6.00;;;;;;;;;;5011714;28;20457;-68
2021/09/27 13:45:36;;;;;;;7.60;6.10;;;;;;;;;;5009803;28;20427;-68
2021/09/27 13:48:02;;;;;;;5.70;5.10;;;;;;;;;;5013083;28;20423;-67
2021/09/27 13:50:28;;;;;;;8.80;6.40;;;;;;;;;;5012647;28;20451;-67
2021/09/27 13:53:06;;;;;;;7.47;5.30;;;;;;;;;;5012532;28;20473;-67
2021/09/27 13:55:32;;;;;;;8.03;5.50;;;;;;;;;;5012334;28;20451;-68
2021/09/27 13:57:58;;;;;;;7.27;5.37;;;;;;;;;;5012953;28;20438;-68
2021/09/27 14:00:24;;;;;;;8.17;5.80;;;;;;;;;;5010266;28;20432;-68
2021/09/27 14:02:50;;;;;;;7.27;5.87;;;;;;;;;;5011504;28;20441;-67
2021/09/27 14:05:17;;;;;;;7.77;5.87;;;;;;;;;;5012632;28;20419;-67
2021/09/27 14:07:43;;;;;;;6.47;5.43;;;;;;;;;;5013066;28;20426;-67
2021/09/27 14:10:10;;;;;;;7.10;4.90;;;;;;;;;;5010337;28;20485;-67
2021/09/27 14:12:36;;;;;;;5.50;4.80;;;;;;;;;;5011118;28;20547;-67
2021/09/27 14:15:03;;;;;;;6.60;5.30;;;;;;;;;;5011627;28;20426;-67
2021/09/27 14:17:30;;;;;;;7.00;6.30;;;;;;;;;;5003855;28;20412;-67
2021/09/27 14:19:57;;;;;;;7.03;5.57;;;;;;;;;;5010721;28;20420;-67
2021/09/27 14:22:23;;;;;;;7.13;5.67;;;;;;;;;;5010558;28;20902;-67
2021/09/27 14:24:49;;;;;;;8.33;5.47;;;;;;;;;;5011563;28;21080;-67
2021/09/27 14:27:15;;;;;;;7.43;5.50;;;;;;;;;;5013568;28;20761;-68
2021/09/27 14:29:41;;;;;;;7.47;5.47;;;;;;;;;;5011753;28;20904;-68
2021/09/27 14:32:07;;;;;;;6.70;6.00;;;;;;;;;;5008869;28;20540;-68
2021/09/27 14:34:33;;;;;;;7.80;6.23;;;;;;;;;;5009844;28;20407;-68
2021/09/27 14:36:59;;;;;;;6.63;5.70;;;;;;;;;;5013312;28;20646;-68
2021/09/27 14:39:26;;;;;;;7.30;4.90;;;;;;;;;;5013348;28;21062;-68
2021/09/27 14:41:52;;;;;;;6.20;4.90;;;;;;;;;;5011971;28;20463;-68
2021/09/27 14:44:18;;;;;;;6.03;5.20;;;;;;;;;;5013334;28;20455;-68
2021/09/27 14:46:46;;;;;;;7.30;5.23;;;;;;;;;;5011708;28;20447;-68
2021/09/27 14:49:12;;;;;;;6.33;5.13;;;;;;;;;;5014044;28;20407;-68
2021/09/27 14:51:38;;;;;;;7.57;5.90;;;;;;;;;;5012641;28;20914;-68
2021/09/27 14:54:05;;;;;;;6.10;5.10;;;;;;;;;;5012878;28;20440;-68
2021/09/27 14:56:32;;;;;;;6.07;5.23;;;;;;;;;;5012296;28;20895;-68